Time;durP1;ratioP1;P1;durP2;ratioP2;P2;SDS_P1;SDS_P2;PMS_P1;PMS_P2;Temp;Humidity;BMP_temperature;BMP_pressure;BME280_temperature;BME280_humidity;BME280_pressure;Samples;Min_cycle;Max_cycle;Signal;HPM_P1;HPM_P2
2023/08/08 00:00:55;;;;;;;2.15;1.50;;;12.00;99.90;;;;;;7571762;19;20018;-72
2023/08/08 00:03:27;;;;;;;1.52;1.08;;;12.00;99.90;;;;;;7572510;19;20145;-72
2023/08/08 00:06:00;;;;;;;2.78;1.08;;;12.10;99.90;;;;;;7582315;19;20109;-73
2023/08/08 00:08:33;;;;;;;4.57;1.30;;;12.10;99.90;;;;;;7575713;19;21630;-73
2023/08/08 00:11:05;;;;;;;2.03;1.30;;;12.10;99.90;;;;;;7572114;19;20102;-74
2023/08/08 00:13:37;;;;;;;1.25;1.15;;;12.00;99.90;;;;;;7572432;19;20026;-72
2023/08/08 00:16:10;;;;;;;1.55;1.10;;;12.00;99.90;;;;;;7581831;19;20026;-73
2023/08/08 00:18:42;;;;;;;1.50;1.00;;;12.10;99.90;;;;;;7572912;19;20015;-73
2023/08/08 00:21:14;;;;;;;1.38;1.08;;;12.00;99.90;;;;;;7575117;19;20094;-72
2023/08/08 00:23:46;;;;;;;2.13;1.20;;;12.00;99.90;;;;;;7572319;19;20086;-72
2023/08/08 00:26:19;;;;;;;2.65;1.20;;;12.10;99.90;;;;;;7575204;19;20023;-73
2023/08/08 00:28:51;;;;;;;1.77;1.13;;;12.20;99.90;;;;;;7573494;19;20025;-71
2023/08/08 00:31:23;;;;;;;2.67;1.40;;;12.10;99.90;;;;;;7577021;19;20028;-71
2023/08/08 00:33:56;;;;;;;2.53;1.38;;;12.20;99.90;;;;;;7574939;19;20022;-71
2023/08/08 00:36:29;;;;;;;2.33;1.20;;;12.10;99.90;;;;;;7586090;19;20018;-74
2023/08/08 00:39:01;;;;;;;2.47;1.08;;;12.20;99.90;;;;;;7589843;19;20031;-72
2023/08/08 00:41:33;;;;;;;1.30;1.00;;;12.20;99.90;;;;;;7579736;19;20018;-72
2023/08/08 00:44:06;;;;;;;3.88;1.23;;;12.20;99.90;;;;;;7580484;19;20015;-72
2023/08/08 00:46:39;;;;;;;3.05;1.20;;;12.20;99.90;;;;;;7574723;19;20101;-72
2023/08/08 00:49:11;;;;;;;2.45;1.00;;;12.10;99.90;;;;;;7582256;19;20060;-72
2023/08/08 00:51:44;;;;;;;1.95;1.20;;;12.20;99.90;;;;;;7581645;19;20034;-72
2023/08/08 00:54:16;;;;;;;2.13;1.15;;;12.20;99.90;;;;;;7584118;19;20014;-73
2023/08/08 00:56:48;;;;;;;1.75;0.90;;;12.20;99.90;;;;;;7581079;19;20452;-73
2023/08/08 00:59:22;;;;;;;2.58;1.40;;;12.20;99.90;;;;;;7584486;19;20019;-72
2023/08/08 01:01:55;;;;;;;1.67;1.08;;;12.30;99.90;;;;;;7582601;19;20026;-72
2023/08/08 01:04:28;;;;;;;1.52;1.08;;;12.20;99.90;;;;;;7577326;19;20022;-72
2023/08/08 01:07:35;;;;;;;3.50;1.60;;;12.30;99.90;;;;;;7586391;19;20085;-72
2023/08/08 01:10:12;;;;;;;1.27;1.00;;;12.30;99.90;;;;;;7576314;19;20022;-72
2023/08/08 01:12:48;;;;;;;1.77;1.30;;;12.30;99.90;;;;;;7584125;19;20920;-74
2023/08/08 01:15:22;;;;;;;1.23;1.02;;;12.30;99.90;;;;;;7588051;19;20026;-72
2023/08/08 01:17:55;;;;;;;1.52;1.15;;;12.30;99.90;;;;;;7585090;19;20149;-73
2023/08/08 01:20:27;;;;;;;3.80;1.23;;;12.20;99.90;;;;;;7583497;19;20007;-73
2023/08/08 01:23:23;;;;;;;2.50;1.40;;;12.20;99.90;;;;;;7580688;19;20014;-75
2023/08/08 01:25:57;;;;;;;2.08;1.17;;;12.10;99.90;;;;;;7581234;19;20021;-74
2023/08/08 01:28:31;;;;;;;1.25;1.10;;;12.20;99.90;;;;;;7581249;19;20015;-74
2023/08/08 01:31:03;;;;;;;2.15;1.15;;;12.20;99.90;;;;;;7580848;19;20881;-74
2023/08/08 01:33:36;;;;;;;3.28;1.55;;;12.20;99.90;;;;;;7581275;19;20277;-71
2023/08/08 01:36:27;;;;;;;2.83;1.25;;;12.10;99.90;;;;;;7585532;19;20034;-72
2023/08/08 01:39:04;;;;;;;3.00;1.40;;;12.10;99.90;;;;;;7581720;19;20133;-73
2023/08/08 01:41:39;;;;;;;1.40;1.20;;;12.10;99.90;;;;;;7571593;19;20011;-74
2023/08/08 01:44:12;;;;;;;2.58;1.40;;;12.10;99.90;;;;;;7581323;19;20025;-73
2023/08/08 01:46:45;;;;;;;1.15;0.80;;;12.00;99.90;;;;;;7568121;19;20051;-72
2023/08/08 01:49:18;;;;;;;2.00;1.40;;;11.90;99.90;;;;;;7586839;19;20021;-72
2023/08/08 01:51:52;;;;;;;3.08;1.40;;;11.90;99.90;;;;;;7570935;19;21916;-73
2023/08/08 01:54:24;;;;;;;1.92;1.30;;;11.90;99.90;;;;;;7586542;19;20029;-75
2023/08/08 01:56:56;;;;;;;2.80;1.15;;;11.90;99.90;;;;;;7583149;19;20039;-74
2023/08/08 01:59:28;;;;;;;3.22;1.58;;;11.80;99.90;;;;;;7575616;19;20025;-74
2023/08/08 02:02:02;;;;;;;2.85;1.30;;;;;;;;;;7572803;19;20019;-72
2023/08/08 02:04:34;;;;;;;2.70;1.50;;;11.70;99.90;;;;;;7579855;19;20011;-73
2023/08/08 02:07:06;;;;;;;2.55;1.35;;;11.70;99.90;;;;;;7588044;19;20033;-74
2023/08/08 02:09:39;;;;;;;3.17;1.60;;;11.60;99.90;;;;;;7575683;19;20927;-74
2023/08/08 02:12:11;;;;;;;2.00;1.10;;;11.60;99.90;;;;;;7579567;19;20063;-74
2023/08/08 02:14:44;;;;;;;2.67;1.30;;;11.60;99.90;;;;;;7572407;19;20082;-74
2023/08/08 02:17:16;;;;;;;2.75;1.27;;;11.50;99.90;;;;;;7582250;19;20055;-74
2023/08/08 02:19:48;;;;;;;2.28;1.42;;;11.50;99.90;;;;;;7575585;19;20014;-73
2023/08/08 02:22:22;;;;;;;2.17;1.45;;;11.50;99.90;;;;;;7585078;19;20051;-73
2023/08/08 02:24:54;;;;;;;2.25;1.45;;;11.50;99.90;;;;;;7571413;19;20249;-74
2023/08/08 02:27:26;;;;;;;1.40;1.17;;;11.40;99.90;;;;;;7571420;19;20649;-74
2023/08/08 02:29:58;;;;;;;3.90;1.50;;;11.40;99.90;;;;;;7579460;19;20023;-71
2023/08/08 02:32:31;;;;;;;2.85;1.40;;;11.40;99.90;;;;;;7571173;19;20238;-73
2023/08/08 02:35:03;;;;;;;3.00;1.60;;;11.40;99.90;;;;;;7581477;19;20029;-73
2023/08/08 02:37:36;;;;;;;1.90;1.50;;;11.30;99.90;;;;;;7579393;19;20018;-72
2023/08/08 02:40:09;;;;;;;2.38;1.50;;;11.30;99.90;;;;;;7579017;19;20047;-75
2023/08/08 02:42:41;;;;;;;1.80;1.50;;;11.30;99.90;;;;;;7577064;19;20795;-72
2023/08/08 02:45:14;;;;;;;4.70;1.40;;;11.30;99.90;;;;;;7576660;19;20806;-74
2023/08/08 02:47:46;;;;;;;3.03;1.40;;;11.20;99.90;;;;;;7578428;19;20018;-71
2023/08/08 02:50:19;;;;;;;2.53;1.58;;;11.20;99.90;;;;;;7580265;19;20022;-74
2023/08/08 02:52:52;;;;;;;4.53;1.80;;;11.10;99.90;;;;;;7578654;19;20022;-72
2023/08/08 02:55:27;;;;;;;2.17;1.17;;;11.10;99.90;;;;;;7583575;19;20015;-74
2023/08/08 02:57:59;;;;;;;1.90;1.30;;;11.10;99.90;;;;;;7577750;19;20003;-73
2023/08/08 03:00:31;;;;;;;2.83;1.33;;;11.00;99.90;;;;;;7582263;19;20010;-74
2023/08/08 03:03:05;;;;;;;4.97;1.70;;;11.00;99.90;;;;;;7571115;19;20019;-71
2023/08/08 03:05:37;;;;;;;2.55;1.65;;;10.90;99.90;;;;;;7579629;19;20010;-71
2023/08/08 03:08:10;;;;;;;2.15;1.50;;;10.80;99.90;;;;;;7575879;19;20022;-72
2023/08/08 03:10:42;;;;;;;2.15;1.30;;;10.90;99.90;;;;;;7565971;19;20449;-74
2023/08/08 03:13:15;;;;;;;1.90;1.40;;;10.90;99.90;;;;;;7572716;19;20018;-72
2023/08/08 03:15:48;;;;;;;2.73;1.40;;;10.80;99.90;;;;;;7574557;19;21042;-72
2023/08/08 03:18:22;;;;;;;2.40;1.60;;;10.80;99.90;;;;;;7575964;19;20017;-74
2023/08/08 03:20:54;;;;;;;3.20;1.40;;;10.80;99.90;;;;;;7577448;19;20097;-75
2023/08/08 03:23:28;;;;;;;3.00;1.58;;;10.70;99.90;;;;;;7575512;19;20018;-72
2023/08/08 03:26:01;;;;;;;1.73;1.33;;;10.70;99.90;;;;;;7568180;19;20019;-75
2023/08/08 03:28:33;;;;;;;3.03;1.97;;;10.70;99.90;;;;;;7583958;19;20014;-72
2023/08/08 03:31:07;;;;;;;2.90;1.80;;;10.60;99.90;;;;;;7560536;19;21902;-73
2023/08/08 03:33:39;;;;;;;5.88;1.60;;;10.70;99.90;;;;;;7573952;19;20018;-71
2023/08/08 03:36:14;;;;;;;2.40;1.50;;;10.70;99.90;;;;;;7575099;19;20010;-74
2023/08/08 03:38:48;;;;;;;2.65;1.70;;;10.70;99.90;;;;;;7567472;19;20022;-71
2023/08/08 03:41:20;;;;;;;1.93;1.40;;;10.70;99.90;;;;;;7578621;19;20025;-72
2023/08/08 03:43:52;;;;;;;1.80;1.60;;;10.80;99.90;;;;;;7575393;19;20025;-74
2023/08/08 03:46:25;;;;;;;3.00;1.73;;;10.80;99.90;;;;;;7575839;19;20671;-75
2023/08/08 03:48:57;;;;;;;3.10;1.70;;;10.80;99.90;;;;;;7585125;19;20033;-74
2023/08/08 03:51:29;;;;;;;3.53;1.48;;;10.90;99.90;;;;;;7585527;19;20022;-75
2023/08/08 03:54:02;;;;;;;2.72;1.55;;;11.00;99.90;;;;;;7583662;19;20023;-74
2023/08/08 03:56:34;;;;;;;2.70;1.83;;;10.90;99.90;;;;;;7577001;19;20617;-75
2023/08/08 03:59:07;;;;;;;5.85;1.88;;;10.90;99.90;;;;;;7577796;19;20015;-74
2023/08/08 04:01:39;;;;;;;3.17;1.50;;;11.00;99.90;;;;;;7570903;19;20038;-73
2023/08/08 04:04:12;;;;;;;2.95;1.75;;;11.00;99.90;;;;;;7570631;19;20014;-74
2023/08/08 04:06:44;;;;;;;2.42;1.38;;;11.00;99.90;;;;;;7576236;19;20101;-74
2023/08/08 04:09:16;;;;;;;4.60;1.88;;;11.10;99.90;;;;;;7577285;19;20753;-74
2023/08/08 04:11:49;;;;;;;2.40;1.63;;;11.10;99.90;;;;;;7580909;19;20962;-73
2023/08/08 04:14:21;;;;;;;2.20;1.30;;;11.10;99.90;;;;;;7577385;19;20059;-73
2023/08/08 04:16:54;;;;;;;5.30;2.08;;;11.10;99.90;;;;;;7587519;19;20024;-73
2023/08/08 04:19:26;;;;;;;3.92;1.52;;;11.10;99.90;;;;;;7590943;19;20006;-73
2023/08/08 04:21:58;;;;;;;4.07;1.73;;;11.20;99.90;;;;;;7589503;19;20019;-74
2023/08/08 04:24:31;;;;;;;3.70;2.03;;;11.20;99.90;;;;;;7597215;19;20015;-75
2023/08/08 04:27:04;;;;;;;3.15;1.70;;;11.20;99.90;;;;;;7572954;19;20033;-73
2023/08/08 04:29:37;;;;;;;2.65;1.48;;;11.20;99.90;;;;;;7585029;19;20139;-74
2023/08/08 04:32:10;;;;;;;;;;;11.30;99.90;;;;;;7581293;19;21041;-73
2023/08/08 04:34:42;;;;;;;2.40;1.65;;;11.30;99.90;;;;;;7585329;19;19963;-75
2023/08/08 04:37:14;;;;;;;1.70;1.30;;;11.40;99.90;;;;;;7582457;19;20047;-73
2023/08/08 04:39:47;;;;;;;3.88;1.65;;;11.40;99.90;;;;;;7588373;19;20015;-73
2023/08/08 04:42:19;;;;;;;4.03;1.70;;;11.40;99.90;;;;;;7579689;19;22504;-72
2023/08/08 04:44:51;;;;;;;5.63;1.70;;;11.40;99.90;;;;;;7586297;19;20022;-73
2023/08/08 04:47:24;;;;;;;2.28;1.38;;;11.50;99.90;;;;;;7592417;19;20026;-73
2023/08/08 04:49:56;;;;;;;3.88;1.60;;;11.50;99.90;;;;;;7595297;19;20018;-73
2023/08/08 04:52:28;;;;;;;2.33;1.42;;;11.50;99.90;;;;;;7580700;19;20026;-75
2023/08/08 04:55:01;;;;;;;3.75;1.90;;;11.60;99.90;;;;;;7577647;19;20029;-73
2023/08/08 04:57:33;;;;;;;2.42;1.38;;;11.60;99.90;;;;;;7586246;19;20014;-74
2023/08/08 05:00:08;;;;;;;2.33;1.42;;;11.70;99.90;;;;;;7586814;19;20034;-74
2023/08/08 05:02:41;;;;;;;3.00;1.50;;;11.70;99.90;;;;;;7570495;19;20585;-73
2023/08/08 05:05:13;;;;;;;2.25;1.45;;;11.80;99.90;;;;;;7567079;19;20022;-73
2023/08/08 05:07:46;;;;;;;3.90;1.75;;;11.80;99.90;;;;;;7581868;19;20027;-73
2023/08/08 05:10:18;;;;;;;2.17;1.58;;;11.90;99.90;;;;;;7572558;19;20018;-74
2023/08/08 05:12:50;;;;;;;2.65;1.30;;;11.90;99.90;;;;;;7586659;19;20018;-73
2023/08/08 05:15:23;;;;;;;3.45;1.83;;;12.00;99.90;;;;;;7589555;19;20022;-74
2023/08/08 05:17:55;;;;;;;3.20;1.40;;;12.00;99.90;;;;;;7591417;19;20051;-73
2023/08/08 05:20:28;;;;;;;4.63;1.70;;;12.00;99.90;;;;;;7591438;19;20093;-74
2023/08/08 05:23:00;;;;;;;3.30;1.23;;;12.10;99.90;;;;;;7583480;19;20014;-73
2023/08/08 05:25:33;;;;;;;4.07;1.55;;;12.10;99.90;;;;;;7580939;19;20046;-73
2023/08/08 05:28:05;;;;;;;1.83;1.20;;;12.20;99.90;;;;;;7588758;19;20695;-74
2023/08/08 05:30:38;;;;;;;5.43;1.65;;;12.20;99.90;;;;;;7579047;19;20007;-73
2023/08/08 05:33:10;;;;;;;5.63;1.43;;;12.20;99.90;;;;;;7589076;19;20917;-74
2023/08/08 05:35:43;;;;;;;4.03;1.30;;;12.30;99.90;;;;;;7598568;19;20808;-73
2023/08/08 05:38:15;;;;;;;4.07;1.63;;;12.30;99.90;;;;;;7596177;19;20505;-74
2023/08/08 05:40:47;;;;;;;4.80;1.45;;;12.40;99.90;;;;;;7569861;19;20018;-73
2023/08/08 05:43:21;;;;;;;1.98;1.40;;;12.50;99.90;;;;;;7591312;19;20022;-74
2023/08/08 05:45:53;;;;;;;;;;;12.60;99.90;;;;;;7589961;19;20037;-73
2023/08/08 05:48:25;;;;;;;2.60;1.30;;;12.70;99.90;;;;;;7590595;19;20014;-73
2023/08/08 05:50:59;;;;;;;1.95;1.38;;;12.80;99.90;;;;;;7593949;19;20022;-73
2023/08/08 05:53:32;;;;;;;;;;;12.80;99.90;;;;;;7593024;19;20019;-74
2023/08/08 05:56:04;;;;;;;3.85;1.45;;;13.00;99.90;;;;;;7593309;19;20695;-74
2023/08/08 05:58:37;;;;;;;1.85;1.10;;;13.00;99.90;;;;;;7592269;19;20014;-72
2023/08/08 06:01:11;;;;;;;2.55;1.17;;;13.10;99.90;;;;;;7590293;19;20057;-73
2023/08/08 06:03:44;;;;;;;3.42;1.50;;;13.20;99.90;;;;;;7588135;19;20029;-73
2023/08/08 06:06:16;;;;;;;2.83;1.25;;;13.10;99.90;;;;;;7593019;19;20015;-73
2023/08/08 06:08:48;;;;;;;2.42;1.50;;;13.10;99.90;;;;;;7590176;19;20022;-73
2023/08/08 06:11:21;;;;;;;8.30;1.10;;;13.10;99.90;;;;;;7581467;19;20057;-73
2023/08/08 06:13:55;;;;;;;1.83;1.40;;;13.20;99.90;;;;;;7586821;19;20851;-73
2023/08/08 06:16:27;;;;;;;2.92;1.23;;;13.20;99.90;;;;;;7588655;19;20036;-73
2023/08/08 06:19:00;;;;;;;1.63;1.25;;;13.30;99.90;;;;;;7595118;19;20618;-73
2023/08/08 06:21:32;;;;;;;3.00;1.30;;;13.30;99.90;;;;;;7587140;19;20023;-73
2023/08/08 06:24:04;;;;;;;3.28;1.55;;;13.40;99.90;;;;;;7586998;19;20007;-73
2023/08/08 06:26:37;;;;;;;2.57;1.57;;;13.40;99.90;;;;;;7583141;19;20019;-73
2023/08/08 06:29:09;;;;;;;2.00;0.90;;;13.50;99.90;;;;;;7586280;19;20010;-74
2023/08/08 06:31:42;;;;;;;2.47;1.30;;;13.50;99.90;;;;;;7592004;19;20026;-72
2023/08/08 06:34:15;;;;;;;3.38;1.58;;;13.60;99.90;;;;;;7578140;19;20290;-73
2023/08/08 06:36:47;;;;;;;2.60;1.50;;;13.80;99.90;;;;;;7584418;19;20995;-74
2023/08/08 06:39:21;;;;;;;3.53;1.33;;;13.90;99.90;;;;;;7588606;19;20022;-73
2023/08/08 06:42:12;;;;;;;6.50;1.80;;;14.00;99.90;;;;;;7573907;19;20015;-74
2023/08/08 06:45:15;;;;;;;2.67;1.45;;;14.00;99.90;;;;;;7582976;19;20475;-74
2023/08/08 06:47:48;;;;;;;2.38;1.60;;;14.20;99.90;;;;;;7584130;19;20025;-73
2023/08/08 06:50:21;;;;;;;1.92;1.60;;;14.30;99.90;;;;;;7584857;19;20026;-73
2023/08/08 06:52:53;;;;;;;5.33;1.63;;;14.30;99.90;;;;;;7583698;19;20328;-73
2023/08/08 06:55:26;;;;;;;2.60;1.48;;;14.40;99.90;;;;;;7578102;19;20275;-73
2023/08/08 06:57:59;;;;;;;2.00;1.50;;;14.50;99.90;;;;;;7584517;19;20025;-72
2023/08/08 07:00:31;;;;;;;2.47;1.42;;;14.60;99.90;;;;;;7584260;19;20023;-74
2023/08/08 07:03:04;;;;;;;3.42;1.67;;;14.70;99.90;;;;;;7577205;19;21357;-72
2023/08/08 07:05:38;;;;;;;2.47;1.20;;;14.80;99.90;;;;;;7587445;19;20954;-73
2023/08/08 07:08:10;;;;;;;3.72;1.50;;;14.90;99.90;;;;;;7593010;19;21648;-74
2023/08/08 07:10:43;;;;;;;1.80;1.15;;;15.00;99.90;;;;;;7587547;19;20117;-73
2023/08/08 07:13:15;;;;;;;3.17;1.33;;;15.10;99.90;;;;;;7582625;19;20010;-73
2023/08/08 07:15:48;;;;;;;3.33;1.42;;;15.30;99.90;;;;;;7575177;19;20059;-74
2023/08/08 07:18:20;;;;;;;4.23;1.40;;;15.40;99.90;;;;;;7589756;19;20055;-73
2023/08/08 07:20:53;;;;;;;3.78;1.55;;;15.50;99.90;;;;;;7590546;19;20014;-73
2023/08/08 07:23:25;;;;;;;5.68;1.88;;;15.50;99.90;;;;;;7584650;19;20344;-74
2023/08/08 07:25:58;;;;;;;3.13;1.60;;;15.60;99.90;;;;;;7577636;19;20387;-74
2023/08/08 07:28:30;;;;;;;2.75;1.40;;;15.70;99.90;;;;;;7585960;19;20604;-73
2023/08/08 07:31:02;;;;;;;2.90;1.30;;;15.70;99.90;;;;;;7586077;19;20022;-73
2023/08/08 07:33:35;;;;;;;2.00;1.30;;;15.80;99.90;;;;;;7589643;19;20491;-74
2023/08/08 07:36:07;;;;;;;2.70;1.60;;;15.90;99.90;;;;;;7590061;19;20122;-73
2023/08/08 07:38:39;;;;;;;3.33;1.45;;;15.90;99.90;;;;;;7587710;19;20018;-74
2023/08/08 07:41:11;;;;;;;2.00;1.27;;;15.90;99.90;;;;;;7586207;19;20017;-75
2023/08/08 07:43:44;;;;;;;4.80;1.50;;;16.10;99.90;;;;;;7588682;19;20598;-75
2023/08/08 07:46:17;;;;;;;2.08;1.25;;;16.20;99.90;;;;;;7585868;19;20030;-73
2023/08/08 07:48:49;;;;;;;2.47;1.50;;;16.30;99.90;;;;;;7604710;19;20117;-73
2023/08/08 07:51:21;;;;;;;2.22;1.30;;;16.40;99.90;;;;;;7606138;19;20037;-72
2023/08/08 07:53:54;;;;;;;1.95;1.33;;;16.50;99.90;;;;;;7602944;19;20022;-73
2023/08/08 07:56:26;;;;;;;1.35;1.00;;;16.60;99.90;;;;;;7603744;19;20010;-72
2023/08/08 07:58:59;;;;;;;2.45;1.50;;;16.80;99.90;;;;;;7587725;19;20122;-74
2023/08/08 08:01:32;;;;;;;3.90;1.20;;;16.80;99.90;;;;;;7592033;19;20027;-72
2023/08/08 08:04:04;;;;;;;2.35;1.35;;;16.80;99.90;;;;;;7588467;19;20027;-73
2023/08/08 08:06:36;;;;;;;2.53;1.50;;;16.80;99.90;;;;;;7586238;19;20029;-73
2023/08/08 08:09:09;;;;;;;2.65;1.45;;;16.90;99.90;;;;;;7591723;19;20117;-75
2023/08/08 08:11:41;;;;;;;3.05;1.48;;;16.90;99.90;;;;;;7581867;19;20022;-72
2023/08/08 08:14:14;;;;;;;2.63;1.35;;;17.00;99.90;;;;;;7593910;19;20014;-73
2023/08/08 08:16:46;;;;;;;2.72;1.20;;;17.20;99.90;;;;;;7589957;19;20018;-74
2023/08/08 08:19:19;;;;;;;1.88;1.10;;;17.20;99.90;;;;;;7593771;19;20507;-75
2023/08/08 08:21:52;;;;;;;3.95;1.65;;;17.30;99.90;;;;;;7597852;19;20502;-74
2023/08/08 08:24:24;;;;;;;2.22;1.40;;;17.40;99.90;;;;;;7589856;19;20013;-74
2023/08/08 08:26:56;;;;;;;2.78;1.10;;;17.40;99.90;;;;;;7575888;19;21294;-73
2023/08/08 08:29:29;;;;;;;4.13;1.40;;;17.50;99.50;;;;;;7579967;19;20968;-75
2023/08/08 08:32:01;;;;;;;2.17;1.33;;;17.60;99.50;;;;;;7585170;19;21098;-74
2023/08/08 08:34:34;;;;;;;2.15;1.40;;;17.80;99.00;;;;;;7586429;19;20021;-74
2023/08/08 08:37:07;;;;;;;2.10;1.40;;;17.80;98.50;;;;;;7591878;19;20033;-73
2023/08/08 08:39:39;;;;;;;5.65;1.80;;;17.70;97.80;;;;;;7595534;19;20042;-73
2023/08/08 08:42:13;;;;;;;5.22;1.13;;;17.80;98.60;;;;;;7589332;19;20023;-74
2023/08/08 08:44:49;;;;;;;1.98;1.15;;;18.00;98.10;;;;;;7599005;19;20014;-74
2023/08/08 08:47:24;;;;;;;2.92;1.38;;;18.10;96.20;;;;;;7581103;19;20022;-75
2023/08/08 08:49:57;;;;;;;6.22;1.30;;;18.20;96.60;;;;;;7578545;19;20010;-73
2023/08/08 08:52:30;;;;;;;6.00;1.67;;;18.30;95.60;;;;;;7578291;19;20339;-72
2023/08/08 08:55:04;;;;;;;4.93;1.33;;;18.30;95.60;;;;;;7586033;19;20196;-73
2023/08/08 08:57:37;;;;;;;5.40;1.55;;;18.50;95.80;;;;;;7592658;19;20030;-73
2023/08/08 09:00:10;;;;;;;3.17;1.33;;;18.70;96.10;;;;;;7592204;19;20063;-73
2023/08/08 09:02:43;;;;;;;;;;;18.90;95.60;;;;;;7582625;19;20030;-73
2023/08/08 09:05:21;;;;;;;2.38;1.05;;;19.10;94.20;;;;;;7585577;19;19947;-74
2023/08/08 09:07:54;;;;;;;2.50;1.10;;;19.10;93.50;;;;;;7592696;19;20022;-73
2023/08/08 09:10:28;;;;;;;2.20;1.37;;;19.10;94.20;;;;;;7587098;19;21629;-73
2023/08/08 09:13:00;;;;;;;7.05;4.13;;;19.00;94.00;;;;;;7571790;19;20498;-75
2023/08/08 09:15:34;;;;;;;3.53;1.80;;;19.10;93.80;;;;;;7585992;19;20029;-74
2023/08/08 09:18:07;;;;;;;3.05;1.92;;;18.90;92.90;;;;;;7580291;19;20502;-74
2023/08/08 09:20:40;;;;;;;3.10;1.50;;;18.90;93.70;;;;;;7588040;19;20806;-74
2023/08/08 09:23:12;;;;;;;2.65;1.63;;;18.80;93.30;;;;;;7588499;19;20030;-75
2023/08/08 09:25:44;;;;;;;1.77;1.38;;;18.90;92.30;;;;;;7581466;19;20015;-75
2023/08/08 09:28:17;;;;;;;4.60;2.03;;;19.00;92.90;;;;;;7584283;19;20022;-74
2023/08/08 09:30:49;;;;;;;3.55;1.60;;;19.10;93.40;;;;;;7583700;19;20021;-74
2023/08/08 09:33:27;;;;;;;2.08;1.15;;;19.00;92.80;;;;;;7579867;19;20019;-75
2023/08/08 09:36:00;;;;;;;7.35;1.60;;;19.00;91.90;;;;;;7591669;19;20022;-75
2023/08/08 09:38:32;;;;;;;3.77;1.47;;;19.10;91.60;;;;;;7571373;19;21079;-74
2023/08/08 09:41:05;;;;;;;3.08;1.40;;;19.10;90.70;;;;;;7582425;19;20467;-75
2023/08/08 09:43:37;;;;;;;2.20;1.30;;;19.30;90.50;;;;;;7587126;19;20486;-73
2023/08/08 09:46:10;;;;;;;1.73;1.08;;;19.30;91.10;;;;;;7592086;19;20064;-74
2023/08/08 09:48:43;;;;;;;2.00;1.08;;;19.50;91.00;;;;;;7582767;19;20198;-72
2023/08/08 09:51:16;;;;;;;1.77;1.02;;;19.60;90.40;;;;;;7581962;19;20010;-72
2023/08/08 09:53:49;;;;;;;5.70;1.40;;;19.40;89.50;;;;;;7576132;19;21220;-72
2023/08/08 09:56:24;;;;;;;3.55;1.30;;;19.60;90.60;;;;;;7582629;19;20021;-74
2023/08/08 09:58:58;;;;;;;3.17;1.25;;;19.80;87.40;;;;;;7587082;19;20856;-72
2023/08/08 10:01:31;;;;;;;1.80;1.05;;;19.70;84.20;;;;;;7582828;19;20105;-72
2023/08/08 10:04:05;;;;;;;;;;;19.80;89.60;;;;;;7593201;19;20641;-72
2023/08/08 10:06:37;;;;;;;3.57;1.17;;;19.70;85.40;;;;;;7588985;19;19918;-72
2023/08/08 10:09:09;;;;;;;3.13;1.25;;;19.50;87.00;;;;;;7580613;19;21199;-72
2023/08/08 10:11:44;;;;;;;1.50;1.10;;;19.60;87.40;;;;;;7580705;19;20026;-73
2023/08/08 10:14:16;;;;;;;2.85;1.50;;;19.40;85.70;;;;;;7577767;19;20018;-72
2023/08/08 10:16:48;;;;;;;1.40;1.20;;;19.70;88.10;;;;;;7583469;19;20018;-74
2023/08/08 10:19:23;;;;;;;2.38;1.17;;;20.00;85.60;;;;;;7576154;19;21156;-73
2023/08/08 10:22:03;;;;;;;2.10;1.38;;;20.00;87.00;;;;;;7578152;19;20014;-73
2023/08/08 10:24:36;;;;;;;2.17;1.23;;;20.20;83.80;;;;;;7582820;19;20019;-73
2023/08/08 10:27:09;;;;;;;2.47;1.30;;;20.40;83.60;;;;;;7581463;19;20029;-73
2023/08/08 10:29:46;;;;;;;1.50;1.20;;;20.40;81.40;;;;;;7578191;19;20024;-72
2023/08/08 10:32:25;;;;;;;3.13;1.58;;;20.40;84.10;;;;;;7581285;19;20113;-72
2023/08/08 10:35:03;;;;;;;3.40;1.42;;;20.60;82.70;;;;;;7580850;19;20041;-73
2023/08/08 10:37:36;;;;;;;4.28;1.20;;;20.60;87.00;;;;;;7579039;19;20014;-73
2023/08/08 10:40:11;;;;;;;1.63;1.40;;;20.60;82.90;;;;;;7581980;19;20018;-73
2023/08/08 10:42:46;;;;;;;2.00;1.20;;;20.70;82.90;;;;;;7586444;19;20025;-73
2023/08/08 10:45:18;;;;;;;3.05;1.20;;;20.70;81.60;;;;;;7588513;19;20022;-73
2023/08/08 10:47:50;;;;;;;1.50;1.05;;;20.80;81.80;;;;;;7581069;19;20731;-73
2023/08/08 10:50:23;;;;;;;2.73;1.73;;;20.70;81.50;;;;;;7576333;19;20081;-72
2023/08/08 10:52:56;;;;;;;1.98;1.08;;;20.70;81.70;;;;;;7579599;19;20022;-72
2023/08/08 10:55:34;;;;;;;3.63;1.40;;;20.60;78.30;;;;;;7572439;19;20014;-74
2023/08/08 10:58:09;;;;;;;2.10;1.05;;;20.60;74.60;;;;;;7584730;19;20018;-72
2023/08/08 11:00:43;;;;;;;2.80;1.33;;;20.60;77.20;;;;;;7574932;19;20021;-74
2023/08/08 11:03:15;;;;;;;3.08;1.10;;;20.60;77.10;;;;;;7570652;19;20033;-74
2023/08/08 11:05:48;;;;;;;4.38;1.10;;;20.70;75.90;;;;;;7587472;19;20025;-75
2023/08/08 11:08:23;;;;;;;3.45;1.30;;;20.60;76.70;;;;;;7575854;19;20018;-72
2023/08/08 11:10:56;;;;;;;3.67;1.20;;;21.00;80.20;;;;;;7577909;19;20015;-74
2023/08/08 11:13:28;;;;;;;1.73;1.20;;;21.30;76.00;;;;;;7570455;19;20006;-72
2023/08/08 11:16:02;;;;;;;2.08;1.30;;;21.30;75.20;;;;;;7579211;19;20025;-74
2023/08/08 11:18:35;;;;;;;3.08;1.10;;;21.50;73.80;;;;;;7581965;19;20015;-74
2023/08/08 11:21:11;;;;;;;2.28;1.40;;;21.50;71.90;;;;;;7584718;19;20022;-73
2023/08/08 11:23:50;;;;;;;2.55;1.40;;;21.60;72.00;;;;;;7570908;19;20026;-73
2023/08/08 11:26:23;;;;;;;2.50;1.10;;;21.90;70.20;;;;;;7579843;19;20047;-73
2023/08/08 11:28:57;;;;;;;2.05;1.40;;;22.10;69.80;;;;;;7577061;19;20022;-73
2023/08/08 11:31:30;;;;;;;2.55;1.65;;;22.10;71.10;;;;;;7586399;19;20924;-72
2023/08/08 11:34:04;;;;;;;6.07;1.63;;;22.10;69.80;;;;;;7575882;19;20024;-73
2023/08/08 11:36:37;;;;;;;1.52;1.10;;;21.90;70.10;;;;;;7576915;19;20018;-73
2023/08/08 11:39:10;;;;;;;2.05;1.40;;;21.70;69.70;;;;;;7582048;19;20029;-74
2023/08/08 11:41:43;;;;;;;2.28;1.33;;;21.70;70.20;;;;;;7561759;19;20025;-74
2023/08/08 11:44:16;;;;;;;4.07;1.42;;;21.90;70.40;;;;;;7582272;19;20025;-73
2023/08/08 11:46:49;;;;;;;2.85;1.33;;;21.80;69.30;;;;;;7573239;19;20118;-72
2023/08/08 11:49:21;;;;;;;1.42;1.10;;;21.90;68.90;;;;;;7582180;19;20026;-72
2023/08/08 11:51:56;;;;;;;1.45;1.00;;;22.10;69.30;;;;;;7584367;19;20707;-72
2023/08/08 11:54:31;;;;;;;3.17;1.10;;;22.60;68.90;;;;;;7591911;19;21124;-74
2023/08/08 11:57:03;;;;;;;2.33;1.17;;;22.70;71.40;;;;;;7570573;19;20021;-74
2023/08/08 11:59:36;;;;;;;1.40;1.00;;;22.80;65.80;;;;;;7577860;19;20026;-74
2023/08/08 12:02:09;;;;;;;3.28;1.13;;;23.10;66.60;;;;;;7568201;19;20094;-73
2023/08/08 12:04:46;;;;;;;1.60;1.10;;;23.30;66.00;;;;;;7586325;19;20033;-72
2023/08/08 12:07:19;;;;;;;2.70;1.40;;;23.50;64.40;;;;;;7589738;19;20871;-75
2023/08/08 12:09:52;;;;;;;;;;;23.70;61.70;;;;;;7586816;19;20169;-73
2023/08/08 12:12:26;;;;;;;3.60;1.37;;;23.80;62.30;;;;;;7580852;19;19919;-72
2023/08/08 12:15:02;;;;;;;2.03;1.27;;;23.50;63.80;;;;;;7578626;19;20888;-72
2023/08/08 12:17:39;;;;;;;2.22;1.08;;;23.70;64.40;;;;;;7570611;19;20035;-73
2023/08/08 12:20:14;;;;;;;2.00;1.25;;;23.50;63.10;;;;;;7574018;19;20025;-72
2023/08/08 12:22:47;;;;;;;4.38;1.13;;;23.70;64.90;;;;;;7579183;19;20031;-73
2023/08/08 12:25:19;;;;;;;3.95;1.52;;;23.80;61.90;;;;;;7570906;19;20017;-75
2023/08/08 12:27:52;;;;;;;2.65;0.98;;;24.00;62.70;;;;;;7573936;19;20134;-73
2023/08/08 12:30:24;;;;;;;1.77;1.10;;;24.20;62.90;;;;;;7575286;19;20023;-74
2023/08/08 12:32:56;;;;;;;1.20;1.10;;;24.30;60.70;;;;;;7573176;19;20159;-73
2023/08/08 12:35:28;;;;;;;3.25;1.20;;;24.40;60.50;;;;;;7578550;19;20019;-74
2023/08/08 12:38:02;;;;;;;1.30;1.17;;;24.40;59.50;;;;;;7582844;19;20430;-74
2023/08/08 12:40:34;;;;;;;3.53;1.20;;;24.60;59.80;;;;;;7574660;19;20022;-74
2023/08/08 12:43:07;;;;;;;1.63;0.93;;;24.90;59.30;;;;;;7583960;19;20034;-74
2023/08/08 12:45:40;;;;;;;2.28;1.20;;;24.90;60.50;;;;;;7580846;19;20020;-74
2023/08/08 12:48:12;;;;;;;3.58;1.30;;;24.80;58.80;;;;;;7584192;19;23643;-73
2023/08/08 12:50:44;;;;;;;2.63;1.25;;;24.90;57.60;;;;;;7558490;19;20024;-72
2023/08/08 12:53:17;;;;;;;3.05;1.25;;;24.90;59.30;;;;;;7571975;19;20449;-74
2023/08/08 12:55:50;;;;;;;3.45;1.20;;;24.90;57.00;;;;;;7587664;19;20440;-73
2023/08/08 12:58:22;;;;;;;2.47;1.23;;;25.10;59.80;;;;;;7581581;19;20312;-73
2023/08/08 13:00:55;;;;;;;2.95;1.20;;;25.20;58.30;;;;;;7588039;19;20557;-73
2023/08/08 13:03:27;;;;;;;3.83;1.42;;;25.70;58.10;;;;;;7586745;19;20049;-73
2023/08/08 13:06:00;;;;;;;3.03;1.53;;;25.60;57.80;;;;;;7583508;19;20018;-73
2023/08/08 13:08:32;;;;;;;2.55;1.52;;;25.60;56.20;;;;;;7580997;19;20025;-73
2023/08/08 13:11:05;;;;;;;1.33;1.13;;;25.70;56.50;;;;;;7577638;19;20022;-74
2023/08/08 13:13:37;;;;;;;2.20;1.08;;;25.20;58.20;;;;;;7579865;19;20202;-73
2023/08/08 13:16:10;;;;;;;2.65;1.20;;;25.50;57.20;;;;;;7584719;19;20014;-74
2023/08/08 13:18:43;;;;;;;1.50;1.30;;;25.90;57.00;;;;;;7590124;19;20816;-74